createdAt,value
2018-08-06T00:00:05.389Z,29
2018-08-06T00:15:04.426Z,29
2018-08-06T00:30:04.861Z,29
2018-08-06T00:45:05.199Z,29
2018-08-06T01:00:04.906Z,29
2018-08-06T01:15:05.056Z,28
2018-08-06T01:30:04.899Z,28
2018-08-06T01:45:05.004Z,29
2018-08-06T02:00:04.672Z,28
2018-08-06T02:15:05.183Z,29
2018-08-06T02:30:04.377Z,29
2018-08-06T02:45:05.523Z,28
2018-08-06T03:00:14.721Z,28
2018-08-06T03:15:05.582Z,28
2018-08-06T03:30:05.377Z,29
2018-08-06T03:45:05.472Z,30
2018-08-06T04:00:04.621Z,28
2018-08-06T04:15:04.733Z,29
2018-08-06T04:30:04.616Z,29
2018-08-06T04:45:05.284Z,29
2018-08-06T05:00:04.779Z,29
2018-08-06T05:15:05.398Z,29
2018-08-06T05:30:05.111Z,30
2018-08-06T05:45:05.038Z,31
2018-08-06T06:00:04.945Z,30
2018-08-06T06:15:04.312Z,30
2018-08-06T06:30:05.058Z,29
2018-08-06T06:45:04.911Z,29
2018-08-06T07:00:09.488Z,29
2018-08-06T07:15:04.864Z,30
2018-08-06T07:30:05.005Z,31
2018-08-06T07:45:04.597Z,30
2018-08-06T08:00:05.265Z,32
2018-08-06T08:15:04.707Z,33
2018-08-06T08:30:04.894Z,35
2018-08-06T08:45:04.847Z,32
2018-08-06T09:00:04.789Z,39
2018-08-06T09:15:04.794Z,43
2018-08-06T09:30:09.977Z,31
2018-08-06T09:45:04.888Z,29
2018-08-06T10:00:04.312Z,29
2018-08-06T10:15:05.414Z,29
2018-08-06T10:30:05.324Z,32
2018-08-06T10:45:04.346Z,29
2018-08-06T11:00:05.303Z,29
2018-08-06T11:15:04.787Z,30
2018-08-06T11:30:05.068Z,31
2018-08-06T11:45:04.472Z,30
2018-08-06T12:00:05.113Z,30
2018-08-06T12:15:05.078Z,27
2018-08-06T12:30:05.025Z,30
2018-08-06T12:45:04.666Z,29
2018-08-06T13:00:05.157Z,29
2018-08-06T13:15:04.460Z,29
2018-08-06T13:30:04.913Z,28
2018-08-06T13:45:04.981Z,30
2018-08-06T14:00:04.401Z,30
2018-08-06T14:15:04.404Z,33
2018-08-06T14:30:04.949Z,33
2018-08-06T14:45:04.418Z,30
2018-08-06T15:00:04.377Z,31
2018-08-06T15:15:05.157Z,32
2018-08-06T15:30:04.887Z,32
2018-08-06T15:45:04.644Z,31
2018-08-06T16:00:05.499Z,31
2018-08-06T16:15:05.109Z,29
2018-08-06T16:30:05.554Z,31
2018-08-06T16:45:06.147Z,29
2018-08-06T17:00:05.368Z,28
2018-08-06T17:15:05.466Z,28
2018-08-06T17:30:04.953Z,29
2018-08-06T17:45:05.067Z,27
2018-08-06T18:00:04.527Z,30
2018-08-06T18:15:04.608Z,29
2018-08-06T18:30:04.724Z,29
2018-08-06T18:45:05.427Z,28
2018-08-06T19:00:04.614Z,30
2018-08-06T19:15:04.832Z,28
2018-08-06T19:30:04.939Z,30
2018-08-06T19:45:05.516Z,29
2018-08-06T20:00:05.024Z,29
2018-08-06T20:15:04.783Z,29
2018-08-06T20:30:04.582Z,28
2018-08-06T20:45:05.425Z,29
2018-08-06T21:00:04.772Z,28
2018-08-06T21:15:11.958Z,28
2018-08-06T21:30:05.269Z,29
2018-08-06T21:45:06.800Z,29
2018-08-06T22:00:04.524Z,29
2018-08-06T22:15:04.945Z,28
2018-08-06T22:30:05.575Z,28
2018-08-06T22:45:04.792Z,27
2018-08-06T23:00:05.788Z,29
2018-08-06T23:15:04.667Z,28
2018-08-06T23:30:05.376Z,28
2018-08-06T23:45:04.572Z,27
